»·PEaware :: COA386 MMMX-KIAH

COA386 :: MMMX-KIAH

FLIGHT INFORMATION

Flight Status: Arrived
Operator:
Continental Air Lines
More flights by this operator :: More flights under this callsign
Pilot: Robby H. (353)
Aircraft: BOEING 767-300
(B763)
More flights by this aircraft type
Origin: MMMX Lic Benito Juarez Intl
Mexico
Destination: KIAH G Bush Intercontinental/Houst
United States
More flights between these airports :: More routes between these airports
Route: MAM BRO CRP HAMMU1
File this flight plan on PilotEdge
Remarks: / V /
Altitude:
(Current/Filed)
31,000ft
Speed:
(Current/Filed)
532kts
Departed: 07-Jan-12 06:55 PM
Arrived: 07-Jan-12 08:27 PM
Distance/Time
Traveled:
665nm/1:31
Distance/Time
To Go:
Arrived

Flight Plot

Page will automatically refresh every two minutes.


Map Options




Map Legend


Flown Route
Filed Route
Departure Airport
Arrival Airport
Navaid (VOR, NDB)
Fix

Horizontal Profiles

Position Reports

Time Latitude Longitude Heading Altitude Ground
Speed
07-Jan-12 18:52 19.443523 -99.055878 295 7328ft 1kts
07-Jan-12 18:53 19.431346 -99.078042 239 7329ft 165kts
07-Jan-12 18:54 19.412250 -99.132262 292 8327ft 239kts
07-Jan-12 18:55 19.477438 -99.139434 12 10386ft 277kts
07-Jan-12 18:56 19.555383 -99.120279 11 12137ft 303kts
07-Jan-12 18:57 19.643088 -99.098796 11 13158ft 365kts
07-Jan-12 18:58 19.749278 -99.072785 11 14195ft 416kts
07-Jan-12 18:59 19.864415 -99.044467 11 15192ft 439kts
07-Jan-12 19:00 19.980381 -99.015875 11 16159ft 445kts
07-Jan-12 19:01 20.103697 -98.985448 11 17172ft 452kts
07-Jan-12 19:02 20.226954 -98.954949 11 18172ft 459kts
07-Jan-12 19:03 20.350410 -98.924364 11 19161ft 467kts
07-Jan-12 19:04 20.476777 -98.893025 10 20150ft 474kts
07-Jan-12 19:05 20.607023 -98.860732 10 21157ft 481kts
07-Jan-12 19:06 20.737247 -98.828349 10 22151ft 489kts
07-Jan-12 19:07 20.869240 -98.795456 10 23139ft 496kts
07-Jan-12 19:08 21.003953 -98.761795 9 24138ft 502kts
07-Jan-12 19:09 21.139812 -98.727853 13 25135ft 504kts
07-Jan-12 19:10 21.271692 -98.694832 13 26101ft 505kts
07-Jan-12 19:11 21.410308 -98.659956 8 27107ft 503kts
07-Jan-12 19:12 21.522066 -98.631932 13 27927ft 500kts
07-Jan-12 19:13 21.676303 -98.593067 13 29061ft 493kts
07-Jan-12 19:15 21.918770 -98.531588 7 30875ft 477kts
07-Jan-12 19:16 22.049640 -98.498430 7 31014ft 486kts
07-Jan-12 19:17 22.182043 -98.464925 7 31014ft 498kts
07-Jan-12 19:18 22.317066 -98.430630 7 31005ft 510kts
07-Jan-12 19:19 22.475761 -98.390315 7 31004ft 522kts
07-Jan-12 19:20 22.594491 -98.359952 7 31039ft 522kts
07-Jan-12 19:21 22.734425 -98.324057 7 31047ft 522kts
07-Jan-12 19:22 22.876215 -98.287703 7 31048ft 522kts
07-Jan-12 19:23 23.012882 -98.252640 13 31045ft 515kts
07-Jan-12 19:24 23.154706 -98.216134 13 31046ft 514kts
07-Jan-12 19:25 23.293079 -98.180407 10 31045ft 511kts
07-Jan-12 19:26 23.431707 -98.144362 13 31048ft 511kts
07-Jan-12 19:27 23.566438 -98.109336 13 31048ft 511kts
07-Jan-12 19:28 23.700056 -98.074517 13 31049ft 511kts
07-Jan-12 19:29 23.837474 -98.038638 13 31050ft 511kts
07-Jan-12 19:30 23.977524 -98.001924 13 31051ft 511kts
07-Jan-12 19:31 24.114644 -97.965945 13 31053ft 511kts
07-Jan-12 19:32 24.253022 -97.929525 13 31054ft 511kts
07-Jan-12 19:33 24.388367 -97.893800 13 31060ft 511kts
07-Jan-12 19:34 24.524892 -97.857719 13 31062ft 511kts
07-Jan-12 19:35 24.663268 -97.820946 7 31069ft 513kts
07-Jan-12 19:36 24.803202 -97.783899 7 31070ft 521kts
07-Jan-12 19:37 24.942808 -97.746802 7 31074ft 521kts
07-Jan-12 19:38 25.084038 -97.709091 7 31077ft 521kts
07-Jan-12 19:39 25.221797 -97.672186 7 31075ft 521kts
07-Jan-12 19:40 25.360134 -97.635033 7 31081ft 521kts
07-Jan-12 19:41 25.502211 -97.596787 7 31085ft 521kts
07-Jan-12 19:42 25.641752 -97.559069 7 31087ft 521kts
07-Jan-12 19:43 25.780357 -97.514243 24 30913ft 527kts
07-Jan-12 19:44 25.899033 -97.415149 21 31082ft 531kts
07-Jan-12 19:45 26.035842 -97.382301 357 31078ft 515kts
07-Jan-12 19:46 26.175534 -97.383054 351 31076ft 506kts
07-Jan-12 19:47 26.317444 -97.388869 351 31078ft 505kts
07-Jan-12 19:48 26.458156 -97.393869 351 31078ft 505kts
07-Jan-12 19:49 26.598629 -97.398727 351 31081ft 505kts
07-Jan-12 19:50 26.739328 -97.403638 351 31081ft 505kts
07-Jan-12 19:51 26.879709 -97.408526 351 31077ft 505kts
07-Jan-12 19:52 27.018871 -97.413470 351 31063ft 502kts
07-Jan-12 19:53 27.158852 -97.418466 351 31060ft 502kts
07-Jan-12 19:54 27.273910 -97.428262 347 31054ft 499kts
07-Jan-12 19:58 27.819075 -97.466127 5 31063ft 513kts
07-Jan-12 19:59 27.943721 -97.419657 18 31054ft 525kts
07-Jan-12 20:00 28.076480 -97.349909 18 29403ft 523kts
07-Jan-12 20:01 28.210127 -97.283242 18 27724ft 531kts
07-Jan-12 20:02 28.345509 -97.216433 18 26028ft 526kts
07-Jan-12 20:03 28.476466 -97.151426 18 24353ft 514kts
07-Jan-12 20:04 28.606396 -97.086794 18 22646ft 501kts
07-Jan-12 20:05 28.733272 -97.023471 19 20934ft 489kts
07-Jan-12 20:06 28.855755 -96.962236 19 19233ft 477kts
07-Jan-12 20:07 28.974739 -96.902596 19 17546ft 464kts
07-Jan-12 20:08 29.092689 -96.843276 17 15835ft 460kts
07-Jan-12 20:09 29.196519 -96.769783 37 14146ft 445kts
07-Jan-12 20:10 29.279300 -96.667343 50 12467ft 437kts
07-Jan-12 20:11 29.347807 -96.553964 56 10763ft 427kts
07-Jan-12 20:12 29.409985 -96.441554 60 9069ft 415kts
07-Jan-12 20:13 29.464053 -96.329847 60 7410ft 405kts
07-Jan-12 20:14 29.519867 -96.218630 60 5697ft 394kts
07-Jan-12 20:15 29.573702 -96.111842 56 4010ft 398kts
07-Jan-12 20:16 29.628879 -96.002501 56 3018ft 405kts
07-Jan-12 20:17 29.687699 -95.891906 55 2401ft 402kts
07-Jan-12 20:18 29.743020 -95.790154 56 2006ft 363kts
07-Jan-12 20:19 29.795721 -95.692883 57 1382ft 356kts
07-Jan-12 20:20 29.848043 -95.596308 58 1307ft 349kts
07-Jan-12 20:21 29.911201 -95.538011 42 1526ft 242kts
07-Jan-12 20:22 29.950634 -95.479798 55 888ft 256kts
07-Jan-12 20:23 29.980939 -95.405489 58 765ft 216kts
07-Jan-12 20:24 29.993325 -95.349135 89 118ft 140kts
07-Jan-12 20:25 29.992894 -95.332671 116 109ft 0kts

Navigation Log

Ident Type
Flight plan parsing failed, navigation log unavailable